sensor_id;sensor_type;location;lat;lon;timestamp;P1;durP1;ratioP1;P2;durP2;ratioP2
64063;SDS011;50314;50.618;10.642;2023-08-12T00:00:49;5.32;;;3.28;;
64063;SDS011;50314;50.618;10.642;2023-08-12T00:03:15;5.45;;;3.20;;
64063;SDS011;50314;50.618;10.642;2023-08-12T00:05:40;6.10;;;3.35;;
64063;SDS011;50314;50.618;10.642;2023-08-12T00:08:08;6.78;;;3.38;;
64063;SDS011;50314;50.618;10.642;2023-08-12T00:10:33;4.97;;;3.13;;
64063;SDS011;50314;50.618;10.642;2023-08-12T00:12:59;4.88;;;2.90;;
64063;SDS011;50314;50.618;10.642;2023-08-12T00:15:25;5.35;;;3.28;;
64063;SDS011;50314;50.618;10.642;2023-08-12T00:17:50;4.93;;;3.00;;
64063;SDS011;50314;50.618;10.642;2023-08-12T00:20:16;6.10;;;3.03;;
64063;SDS011;50314;50.618;10.642;2023-08-12T00:22:42;5.50;;;3.20;;
64063;SDS011;50314;50.618;10.642;2023-08-12T00:25:07;4.47;;;2.72;;
64063;SDS011;50314;50.618;10.642;2023-08-12T00:27:34;4.57;;;2.97;;
64063;SDS011;50314;50.618;10.642;2023-08-12T00:29:59;5.25;;;2.83;;
64063;SDS011;50314;50.618;10.642;2023-08-12T00:32:25;4.82;;;2.63;;
64063;SDS011;50314;50.618;10.642;2023-08-12T00:34:51;3.60;;;2.30;;
64063;SDS011;50314;50.618;10.642;2023-08-12T00:37:16;3.90;;;2.45;;
64063;SDS011;50314;50.618;10.642;2023-08-12T00:39:42;4.32;;;2.85;;
64063;SDS011;50314;50.618;10.642;2023-08-12T00:42:07;4.95;;;2.75;;
64063;SDS011;50314;50.618;10.642;2023-08-12T00:44:32;3.63;;;2.17;;
64063;SDS011;50314;50.618;10.642;2023-08-12T00:46:58;5.25;;;2.92;;
64063;SDS011;50314;50.618;10.642;2023-08-12T00:49:24;3.88;;;2.35;;
64063;SDS011;50314;50.618;10.642;2023-08-12T00:51:50;4.25;;;2.15;;
64063;SDS011;50314;50.618;10.642;2023-08-12T00:54:17;4.35;;;2.63;;
64063;SDS011;50314;50.618;10.642;2023-08-12T00:56:48;4.10;;;2.10;;
64063;SDS011;50314;50.618;10.642;2023-08-12T00:59:14;4.32;;;2.83;;
64063;SDS011;50314;50.618;10.642;2023-08-12T01:01:42;3.63;;;2.20;;
64063;SDS011;50314;50.618;10.642;2023-08-12T01:04:09;5.05;;;2.55;;
64063;SDS011;50314;50.618;10.642;2023-08-12T01:06:35;3.60;;;2.10;;
64063;SDS011;50314;50.618;10.642;2023-08-12T01:09:02;3.25;;;2.00;;
64063;SDS011;50314;50.618;10.642;2023-08-12T01:11:41;3.22;;;2.17;;
64063;SDS011;50314;50.618;10.642;2023-08-12T01:14:22;3.40;;;2.28;;
64063;SDS011;50314;50.618;10.642;2023-08-12T01:16:49;3.30;;;2.13;;
64063;SDS011;50314;50.618;10.642;2023-08-12T01:22:01;2.72;;;1.95;;
64063;SDS011;50314;50.618;10.642;2023-08-12T01:24:33;3.17;;;2.05;;
64063;SDS011;50314;50.618;10.642;2023-08-12T01:27:00;4.13;;;2.20;;
64063;SDS011;50314;50.618;10.642;2023-08-12T01:29:26;3.30;;;1.98;;
64063;SDS011;50314;50.618;10.642;2023-08-12T01:31:54;5.35;;;2.30;;
64063;SDS011;50314;50.618;10.642;2023-08-12T01:34:29;2.80;;;2.22;;
64063;SDS011;50314;50.618;10.642;2023-08-12T01:36:57;3.10;;;2.17;;
64063;SDS011;50314;50.618;10.642;2023-08-12T01:39:25;3.10;;;1.88;;
64063;SDS011;50314;50.618;10.642;2023-08-12T01:41:52;3.60;;;2.10;;
64063;SDS011;50314;50.618;10.642;2023-08-12T01:44:19;3.38;;;2.17;;
64063;SDS011;50314;50.618;10.642;2023-08-12T01:46:44;3.72;;;2.10;;
64063;SDS011;50314;50.618;10.642;2023-08-12T01:49:11;2.53;;;1.75;;
64063;SDS011;50314;50.618;10.642;2023-08-12T01:51:36;2.17;;;1.80;;
64063;SDS011;50314;50.618;10.642;2023-08-12T01:54:02;4.03;;;2.22;;
64063;SDS011;50314;50.618;10.642;2023-08-12T01:56:28;2.88;;;2.10;;
64063;SDS011;50314;50.618;10.642;2023-08-12T01:58:53;2.95;;;1.90;;
64063;SDS011;50314;50.618;10.642;2023-08-12T02:01:18;2.33;;;1.77;;
64063;SDS011;50314;50.618;10.642;2023-08-12T02:03:44;2.40;;;1.70;;
64063;SDS011;50314;50.618;10.642;2023-08-12T02:06:09;2.53;;;1.80;;
64063;SDS011;50314;50.618;10.642;2023-08-12T02:08:35;2.33;;;1.60;;
64063;SDS011;50314;50.618;10.642;2023-08-12T02:11:01;3.33;;;1.90;;
64063;SDS011;50314;50.618;10.642;2023-08-12T02:13:26;2.30;;;1.63;;
64063;SDS011;50314;50.618;10.642;2023-08-12T02:15:52;1.92;;;1.60;;
64063;SDS011;50314;50.618;10.642;2023-08-12T02:18:17;1.95;;;1.65;;
64063;SDS011;50314;50.618;10.642;2023-08-12T02:20:42;1.80;;;1.50;;
64063;SDS011;50314;50.618;10.642;2023-08-12T02:23:08;2.17;;;1.50;;
64063;SDS011;50314;50.618;10.642;2023-08-12T02:25:34;1.85;;;1.45;;
64063;SDS011;50314;50.618;10.642;2023-08-12T02:27:59;3.05;;;1.90;;
64063;SDS011;50314;50.618;10.642;2023-08-12T02:30:25;2.15;;;1.70;;
64063;SDS011;50314;50.618;10.642;2023-08-12T02:32:52;2.20;;;1.60;;
64063;SDS011;50314;50.618;10.642;2023-08-12T02:35:18;2.67;;;1.85;;
64063;SDS011;50314;50.618;10.642;2023-08-12T02:37:43;1.95;;;1.50;;
64063;SDS011;50314;50.618;10.642;2023-08-12T02:40:09;2.22;;;1.60;;
64063;SDS011;50314;50.618;10.642;2023-08-12T02:42:35;2.72;;;1.75;;
64063;SDS011;50314;50.618;10.642;2023-08-12T02:45:01;2.75;;;1.75;;
64063;SDS011;50314;50.618;10.642;2023-08-12T02:47:27;2.10;;;1.50;;
64063;SDS011;50314;50.618;10.642;2023-08-12T02:49:53;1.70;;;1.52;;
64063;SDS011;50314;50.618;10.642;2023-08-12T02:52:18;1.70;;;1.60;;
64063;SDS011;50314;50.618;10.642;2023-08-12T02:54:44;2.63;;;1.80;;
64063;SDS011;50314;50.618;10.642;2023-08-12T02:57:09;2.20;;;1.42;;
64063;SDS011;50314;50.618;10.642;2023-08-12T02:59:35;2.42;;;1.67;;
64063;SDS011;50314;50.618;10.642;2023-08-12T03:02:00;2.38;;;2.00;;
64063;SDS011;50314;50.618;10.642;2023-08-12T03:04:26;2.50;;;1.80;;
64063;SDS011;50314;50.618;10.642;2023-08-12T03:06:51;1.77;;;1.65;;
64063;SDS011;50314;50.618;10.642;2023-08-12T03:09:17;2.08;;;1.63;;
64063;SDS011;50314;50.618;10.642;2023-08-12T03:11:43;3.00;;;2.13;;
64063;SDS011;50314;50.618;10.642;2023-08-12T03:14:09;2.60;;;1.60;;
64063;SDS011;50314;50.618;10.642;2023-08-12T03:16:34;1.75;;;1.38;;
64063;SDS011;50314;50.618;10.642;2023-08-12T03:19:00;2.88;;;1.85;;
64063;SDS011;50314;50.618;10.642;2023-08-12T03:21:25;1.63;;;1.50;;
64063;SDS011;50314;50.618;10.642;2023-08-12T03:23:51;1.92;;;1.50;;
64063;SDS011;50314;50.618;10.642;2023-08-12T03:26:16;2.58;;;1.52;;
64063;SDS011;50314;50.618;10.642;2023-08-12T03:28:42;2.20;;;1.40;;
64063;SDS011;50314;50.618;10.642;2023-08-12T03:31:07;1.75;;;1.40;;
64063;SDS011;50314;50.618;10.642;2023-08-12T03:33:33;2.17;;;1.60;;
64063;SDS011;50314;50.618;10.642;2023-08-12T03:35:59;2.50;;;1.67;;
64063;SDS011;50314;50.618;10.642;2023-08-12T03:38:24;1.98;;;1.55;;
64063;SDS011;50314;50.618;10.642;2023-08-12T03:40:50;1.50;;;1.40;;
64063;SDS011;50314;50.618;10.642;2023-08-12T03:43:15;1.40;;;1.25;;
64063;SDS011;50314;50.618;10.642;2023-08-12T03:45:41;2.38;;;1.70;;
64063;SDS011;50314;50.618;10.642;2023-08-12T03:48:10;2.28;;;1.40;;
64063;SDS011;50314;50.618;10.642;2023-08-12T03:50:36;2.40;;;1.77;;
64063;SDS011;50314;50.618;10.642;2023-08-12T03:53:03;2.58;;;1.50;;
64063;SDS011;50314;50.618;10.642;2023-08-12T03:55:33;2.10;;;1.55;;
64063;SDS011;50314;50.618;10.642;2023-08-12T03:57:59;1.42;;;1.17;;
64063;SDS011;50314;50.618;10.642;2023-08-12T04:00:24;1.73;;;1.60;;
64063;SDS011;50314;50.618;10.642;2023-08-12T04:02:50;1.95;;;1.75;;
64063;SDS011;50314;50.618;10.642;2023-08-12T04:05:16;2.92;;;1.65;;
64063;SDS011;50314;50.618;10.642;2023-08-12T04:07:41;2.05;;;1.50;;
64063;SDS011;50314;50.618;10.642;2023-08-12T04:10:07;3.45;;;1.60;;
64063;SDS011;50314;50.618;10.642;2023-08-12T04:12:33;2.05;;;1.65;;
64063;SDS011;50314;50.618;10.642;2023-08-12T04:14:58;1.65;;;1.55;;
64063;SDS011;50314;50.618;10.642;2023-08-12T04:17:25;1.70;;;1.60;;
64063;SDS011;50314;50.618;10.642;2023-08-12T04:19:51;1.92;;;1.65;;
64063;SDS011;50314;50.618;10.642;2023-08-12T04:22:16;1.85;;;1.50;;
64063;SDS011;50314;50.618;10.642;2023-08-12T04:24:42;1.70;;;1.60;;
64063;SDS011;50314;50.618;10.642;2023-08-12T04:27:07;1.50;;;1.40;;
64063;SDS011;50314;50.618;10.642;2023-08-12T04:29:33;1.67;;;1.42;;
64063;SDS011;50314;50.618;10.642;2023-08-12T04:34:25;1.40;;;1.17;;
64063;SDS011;50314;50.618;10.642;2023-08-12T04:36:50;1.45;;;1.30;;
64063;SDS011;50314;50.618;10.642;2023-08-12T04:39:16;2.15;;;1.50;;
64063;SDS011;50314;50.618;10.642;2023-08-12T04:41:41;2.25;;;1.73;;
64063;SDS011;50314;50.618;10.642;2023-08-12T04:44:07;2.28;;;1.52;;
64063;SDS011;50314;50.618;10.642;2023-08-12T04:46:32;1.63;;;1.35;;
64063;SDS011;50314;50.618;10.642;2023-08-12T04:48:58;1.48;;;1.38;;
64063;SDS011;50314;50.618;10.642;2023-08-12T04:51:23;1.55;;;1.40;;
64063;SDS011;50314;50.618;10.642;2023-08-12T04:53:49;1.73;;;1.58;;
64063;SDS011;50314;50.618;10.642;2023-08-12T04:56:14;1.95;;;1.73;;
64063;SDS011;50314;50.618;10.642;2023-08-12T04:58:40;1.92;;;1.65;;
64063;SDS011;50314;50.618;10.642;2023-08-12T05:01:05;3.50;;;1.60;;
64063;SDS011;50314;50.618;10.642;2023-08-12T05:05:59;2.03;;;1.70;;
64063;SDS011;50314;50.618;10.642;2023-08-12T05:08:24;1.40;;;1.20;;
64063;SDS011;50314;50.618;10.642;2023-08-12T05:10:50;1.85;;;1.20;;
64063;SDS011;50314;50.618;10.642;2023-08-12T05:13:16;1.80;;;1.60;;
64063;SDS011;50314;50.618;10.642;2023-08-12T05:15:44;2.70;;;1.88;;
64063;SDS011;50314;50.618;10.642;2023-08-12T05:18:10;2.10;;;1.90;;
64063;SDS011;50314;50.618;10.642;2023-08-12T05:20:37;2.85;;;2.20;;
64063;SDS011;50314;50.618;10.642;2023-08-12T05:23:02;2.20;;;1.63;;
64063;SDS011;50314;50.618;10.642;2023-08-12T05:25:28;3.13;;;2.10;;
64063;SDS011;50314;50.618;10.642;2023-08-12T05:27:53;2.38;;;1.63;;
64063;SDS011;50314;50.618;10.642;2023-08-12T05:30:19;3.03;;;1.70;;
64063;SDS011;50314;50.618;10.642;2023-08-12T05:32:45;2.78;;;2.08;;
64063;SDS011;50314;50.618;10.642;2023-08-12T05:35:10;2.97;;;1.55;;
64063;SDS011;50314;50.618;10.642;2023-08-12T05:37:36;3.25;;;1.75;;
64063;SDS011;50314;50.618;10.642;2023-08-12T05:40:01;4.65;;;1.77;;
64063;SDS011;50314;50.618;10.642;2023-08-12T05:47:18;2.58;;;1.88;;
64063;SDS011;50314;50.618;10.642;2023-08-12T05:49:47;2.15;;;1.70;;
64063;SDS011;50314;50.618;10.642;2023-08-12T05:52:12;4.65;;;1.77;;
64063;SDS011;50314;50.618;10.642;2023-08-12T05:54:37;2.35;;;1.70;;
64063;SDS011;50314;50.618;10.642;2023-08-12T05:57:03;3.80;;;2.00;;
64063;SDS011;50314;50.618;10.642;2023-08-12T05:59:29;2.70;;;1.95;;
64063;SDS011;50314;50.618;10.642;2023-08-12T06:01:54;2.47;;;1.58;;
64063;SDS011;50314;50.618;10.642;2023-08-12T06:04:20;2.88;;;1.88;;
64063;SDS011;50314;50.618;10.642;2023-08-12T06:06:45;2.70;;;1.80;;
64063;SDS011;50314;50.618;10.642;2023-08-12T06:09:11;3.08;;;2.00;;
64063;SDS011;50314;50.618;10.642;2023-08-12T06:11:36;3.60;;;2.05;;
64063;SDS011;50314;50.618;10.642;2023-08-12T06:14:02;2.53;;;1.70;;
64063;SDS011;50314;50.618;10.642;2023-08-12T06:16:27;1.95;;;1.67;;
64063;SDS011;50314;50.618;10.642;2023-08-12T06:18:53;2.40;;;1.83;;
64063;SDS011;50314;50.618;10.642;2023-08-12T06:21:18;3.03;;;2.05;;
64063;SDS011;50314;50.618;10.642;2023-08-12T06:23:43;2.60;;;2.20;;
64063;SDS011;50314;50.618;10.642;2023-08-12T06:26:09;3.75;;;1.95;;
64063;SDS011;50314;50.618;10.642;2023-08-12T06:28:35;3.40;;;2.30;;
64063;SDS011;50314;50.618;10.642;2023-08-12T06:31:00;2.67;;;1.80;;
64063;SDS011;50314;50.618;10.642;2023-08-12T06:33:26;3.45;;;2.08;;
64063;SDS011;50314;50.618;10.642;2023-08-12T06:35:51;3.28;;;1.88;;
64063;SDS011;50314;50.618;10.642;2023-08-12T06:38:17;5.07;;;1.90;;
64063;SDS011;50314;50.618;10.642;2023-08-12T06:40:42;2.53;;;1.80;;
64063;SDS011;50314;50.618;10.642;2023-08-12T06:43:09;3.45;;;1.70;;
64063;SDS011;50314;50.618;10.642;2023-08-12T06:45:34;2.80;;;1.98;;
64063;SDS011;50314;50.618;10.642;2023-08-12T06:48:00;2.47;;;1.90;;
64063;SDS011;50314;50.618;10.642;2023-08-12T06:50:27;2.47;;;1.85;;
64063;SDS011;50314;50.618;10.642;2023-08-12T06:52:53;3.33;;;1.85;;
64063;SDS011;50314;50.618;10.642;2023-08-12T06:55:18;2.35;;;1.92;;
64063;SDS011;50314;50.618;10.642;2023-08-12T06:57:44;2.60;;;1.67;;
64063;SDS011;50314;50.618;10.642;2023-08-12T07:00:11;2.55;;;1.90;;
64063;SDS011;50314;50.618;10.642;2023-08-12T07:02:38;2.58;;;1.90;;
64063;SDS011;50314;50.618;10.642;2023-08-12T07:05:06;3.08;;;2.28;;
64063;SDS011;50314;50.618;10.642;2023-08-12T07:07:32;4.13;;;2.97;;
64063;SDS011;50314;50.618;10.642;2023-08-12T07:09:57;4.68;;;2.67;;
64063;SDS011;50314;50.618;10.642;2023-08-12T07:12:23;4.05;;;2.45;;
64063;SDS011;50314;50.618;10.642;2023-08-12T07:14:48;6.10;;;2.95;;
64063;SDS011;50314;50.618;10.642;2023-08-12T07:17:14;3.53;;;2.25;;
64063;SDS011;50314;50.618;10.642;2023-08-12T07:19:39;4.57;;;2.30;;
64063;SDS011;50314;50.618;10.642;2023-08-12T07:22:05;4.72;;;2.10;;
64063;SDS011;50314;50.618;10.642;2023-08-12T07:24:30;4.22;;;2.40;;
64063;SDS011;50314;50.618;10.642;2023-08-12T07:26:56;3.72;;;2.17;;
64063;SDS011;50314;50.618;10.642;2023-08-12T07:29:21;4.55;;;2.40;;
64063;SDS011;50314;50.618;10.642;2023-08-12T07:31:47;3.42;;;2.17;;
64063;SDS011;50314;50.618;10.642;2023-08-12T07:34:13;3.03;;;1.90;;
64063;SDS011;50314;50.618;10.642;2023-08-12T07:36:39;3.92;;;2.20;;
64063;SDS011;50314;50.618;10.642;2023-08-12T07:39:05;4.03;;;2.20;;
64063;SDS011;50314;50.618;10.642;2023-08-12T07:41:31;2.42;;;1.60;;
64063;SDS011;50314;50.618;10.642;2023-08-12T07:43:57;2.85;;;2.00;;
64063;SDS011;50314;50.618;10.642;2023-08-12T07:46:22;2.97;;;1.92;;
64063;SDS011;50314;50.618;10.642;2023-08-12T07:48:48;3.05;;;2.10;;
64063;SDS011;50314;50.618;10.642;2023-08-12T07:51:14;2.63;;;1.90;;
64063;SDS011;50314;50.618;10.642;2023-08-12T07:53:40;2.45;;;1.90;;
64063;SDS011;50314;50.618;10.642;2023-08-12T07:56:05;4.63;;;2.17;;
64063;SDS011;50314;50.618;10.642;2023-08-12T07:58:31;3.53;;;2.33;;
64063;SDS011;50314;50.618;10.642;2023-08-12T08:00:56;3.67;;;1.95;;
64063;SDS011;50314;50.618;10.642;2023-08-12T08:03:22;3.03;;;2.22;;
64063;SDS011;50314;50.618;10.642;2023-08-12T08:05:47;4.22;;;2.10;;
64063;SDS011;50314;50.618;10.642;2023-08-12T08:08:13;2.47;;;1.70;;
64063;SDS011;50314;50.618;10.642;2023-08-12T08:10:39;2.65;;;1.60;;
64063;SDS011;50314;50.618;10.642;2023-08-12T08:13:04;3.10;;;2.03;;
64063;SDS011;50314;50.618;10.642;2023-08-12T08:15:30;2.58;;;2.00;;
64063;SDS011;50314;50.618;10.642;2023-08-12T08:17:55;2.70;;;1.90;;
64063;SDS011;50314;50.618;10.642;2023-08-12T08:20:21;3.00;;;2.20;;
64063;SDS011;50314;50.618;10.642;2023-08-12T08:22:47;2.58;;;1.60;;
64063;SDS011;50314;50.618;10.642;2023-08-12T08:25:13;3.80;;;1.88;;
64063;SDS011;50314;50.618;10.642;2023-08-12T08:27:38;3.10;;;2.42;;
64063;SDS011;50314;50.618;10.642;2023-08-12T08:30:04;3.15;;;2.30;;
64063;SDS011;50314;50.618;10.642;2023-08-12T08:32:31;4.55;;;2.78;;
64063;SDS011;50314;50.618;10.642;2023-08-12T08:34:57;3.70;;;2.60;;
64063;SDS011;50314;50.618;10.642;2023-08-12T08:37:22;4.20;;;2.33;;
64063;SDS011;50314;50.618;10.642;2023-08-12T08:39:48;2.85;;;2.40;;
64063;SDS011;50314;50.618;10.642;2023-08-12T08:42:13;4.32;;;2.40;;
64063;SDS011;50314;50.618;10.642;2023-08-12T08:44:40;3.75;;;2.75;;
64063;SDS011;50314;50.618;10.642;2023-08-12T08:47:08;5.93;;;2.85;;
64063;SDS011;50314;50.618;10.642;2023-08-12T08:49:34;3.40;;;2.60;;
64063;SDS011;50314;50.618;10.642;2023-08-12T08:52:01;4.07;;;2.55;;
64063;SDS011;50314;50.618;10.642;2023-08-12T08:54:27;5.05;;;2.40;;
64063;SDS011;50314;50.618;10.642;2023-08-12T08:56:53;3.53;;;2.33;;
64063;SDS011;50314;50.618;10.642;2023-08-12T08:59:19;3.65;;;2.63;;
64063;SDS011;50314;50.618;10.642;2023-08-12T09:01:46;3.35;;;2.30;;
64063;SDS011;50314;50.618;10.642;2023-08-12T09:04:16;3.13;;;2.50;;
64063;SDS011;50314;50.618;10.642;2023-08-12T09:06:42;3.72;;;2.63;;
64063;SDS011;50314;50.618;10.642;2023-08-12T09:09:10;3.67;;;2.38;;
64063;SDS011;50314;50.618;10.642;2023-08-12T09:11:40;5.25;;;2.33;;
64063;SDS011;50314;50.618;10.642;2023-08-12T09:14:06;3.63;;;2.28;;
64063;SDS011;50314;50.618;10.642;2023-08-12T09:16:32;4.85;;;2.50;;
64063;SDS011;50314;50.618;10.642;2023-08-12T09:18:57;3.15;;;2.25;;
64063;SDS011;50314;50.618;10.642;2023-08-12T09:21:23;3.53;;;2.42;;
64063;SDS011;50314;50.618;10.642;2023-08-12T09:23:49;2.83;;;2.15;;
64063;SDS011;50314;50.618;10.642;2023-08-12T09:26:15;4.63;;;2.75;;
64063;SDS011;50314;50.618;10.642;2023-08-12T09:28:45;3.55;;;2.58;;
64063;SDS011;50314;50.618;10.642;2023-08-12T09:31:22;2.72;;;2.40;;
64063;SDS011;50314;50.618;10.642;2023-08-12T09:33:49;3.20;;;2.30;;
64063;SDS011;50314;50.618;10.642;2023-08-12T09:36:16;3.08;;;2.42;;
64063;SDS011;50314;50.618;10.642;2023-08-12T09:38:42;3.83;;;2.70;;
64063;SDS011;50314;50.618;10.642;2023-08-12T09:41:08;4.38;;;2.28;;
64063;SDS011;50314;50.618;10.642;2023-08-12T09:43:34;4.75;;;2.70;;
64063;SDS011;50314;50.618;10.642;2023-08-12T09:46:00;4.45;;;2.58;;
64063;SDS011;50314;50.618;10.642;2023-08-12T09:48:27;3.22;;;2.88;;
64063;SDS011;50314;50.618;10.642;2023-08-12T09:50:53;3.00;;;2.70;;
64063;SDS011;50314;50.618;10.642;2023-08-12T09:53:19;3.03;;;2.72;;
64063;SDS011;50314;50.618;10.642;2023-08-12T09:55:47;4.15;;;2.78;;
64063;SDS011;50314;50.618;10.642;2023-08-12T09:58:15;4.15;;;2.80;;
64063;SDS011;50314;50.618;10.642;2023-08-12T10:00:43;3.38;;;2.30;;
64063;SDS011;50314;50.618;10.642;2023-08-12T10:03:10;3.35;;;2.38;;
64063;SDS011;50314;50.618;10.642;2023-08-12T10:05:39;3.58;;;2.30;;
64063;SDS011;50314;50.618;10.642;2023-08-12T10:08:05;2.75;;;2.15;;
64063;SDS011;50314;50.618;10.642;2023-08-12T10:10:33;4.07;;;1.90;;
64063;SDS011;50314;50.618;10.642;2023-08-12T10:13:00;5.57;;;2.00;;
64063;SDS011;50314;50.618;10.642;2023-08-12T10:17:53;2.13;;;1.65;;
64063;SDS011;50314;50.618;10.642;2023-08-12T10:20:21;3.05;;;1.85;;
64063;SDS011;50314;50.618;10.642;2023-08-12T10:22:48;2.95;;;2.17;;
64063;SDS011;50314;50.618;10.642;2023-08-12T10:25:15;2.83;;;2.40;;
64063;SDS011;50314;50.618;10.642;2023-08-12T10:27:43;2.70;;;1.92;;
64063;SDS011;50314;50.618;10.642;2023-08-12T10:30:09;4.35;;;2.35;;
64063;SDS011;50314;50.618;10.642;2023-08-12T10:32:35;2.88;;;1.80;;
64063;SDS011;50314;50.618;10.642;2023-08-12T10:35:01;3.40;;;2.10;;
64063;SDS011;50314;50.618;10.642;2023-08-12T10:39:56;2.42;;;1.70;;
64063;SDS011;50314;50.618;10.642;2023-08-12T10:45:07;3.75;;;2.20;;
64063;SDS011;50314;50.618;10.642;2023-08-12T10:47:37;2.72;;;1.80;;
64063;SDS011;50314;50.618;10.642;2023-08-12T10:50:04;2.60;;;2.00;;
64063;SDS011;50314;50.618;10.642;2023-08-12T10:52:31;2.03;;;1.50;;
64063;SDS011;50314;50.618;10.642;2023-08-12T11:00:10;3.30;;;2.10;;
64063;SDS011;50314;50.618;10.642;2023-08-12T11:02:38;3.17;;;2.45;;
64063;SDS011;50314;50.618;10.642;2023-08-12T11:05:12;3.58;;;1.83;;
64063;SDS011;50314;50.618;10.642;2023-08-12T11:10:17;2.95;;;2.00;;
64063;SDS011;50314;50.618;10.642;2023-08-12T11:12:54;2.65;;;2.00;;
64063;SDS011;50314;50.618;10.642;2023-08-12T11:15:31;3.92;;;1.75;;
64063;SDS011;50314;50.618;10.642;2023-08-12T11:18:02;4.00;;;2.10;;
64063;SDS011;50314;50.618;10.642;2023-08-12T11:20:29;5.65;;;2.20;;
64063;SDS011;50314;50.618;10.642;2023-08-12T11:22:56;4.20;;;2.10;;
64063;SDS011;50314;50.618;10.642;2023-08-12T11:25:23;4.50;;;2.28;;
64063;SDS011;50314;50.618;10.642;2023-08-12T11:27:49;3.83;;;1.90;;
64063;SDS011;50314;50.618;10.642;2023-08-12T11:30:16;2.53;;;2.00;;
64063;SDS011;50314;50.618;10.642;2023-08-12T11:32:47;2.78;;;1.85;;
64063;SDS011;50314;50.618;10.642;2023-08-12T11:35:14;6.00;;;1.80;;
64063;SDS011;50314;50.618;10.642;2023-08-12T11:37:42;3.05;;;2.08;;
64063;SDS011;50314;50.618;10.642;2023-08-12T11:40:10;3.75;;;2.33;;
64063;SDS011;50314;50.618;10.642;2023-08-12T11:42:41;2.58;;;2.00;;
64063;SDS011;50314;50.618;10.642;2023-08-12T11:45:08;3.03;;;2.20;;
64063;SDS011;50314;50.618;10.642;2023-08-12T11:47:34;4.25;;;1.77;;
64063;SDS011;50314;50.618;10.642;2023-08-12T11:50:07;3.42;;;2.08;;
64063;SDS011;50314;50.618;10.642;2023-08-12T11:52:35;3.53;;;2.30;;
64063;SDS011;50314;50.618;10.642;2023-08-12T11:55:01;2.90;;;1.88;;
64063;SDS011;50314;50.618;10.642;2023-08-12T11:57:27;2.55;;;2.00;;
64063;SDS011;50314;50.618;10.642;2023-08-12T12:00:03;2.83;;;2.05;;
64063;SDS011;50314;50.618;10.642;2023-08-12T12:02:56;3.05;;;2.05;;
64063;SDS011;50314;50.618;10.642;2023-08-12T12:05:23;2.92;;;2.08;;
64063;SDS011;50314;50.618;10.642;2023-08-12T12:07:51;2.35;;;1.90;;
64063;SDS011;50314;50.618;10.642;2023-08-12T12:10:21;2.63;;;1.98;;
64063;SDS011;50314;50.618;10.642;2023-08-12T12:15:22;2.45;;;1.90;;
64063;SDS011;50314;50.618;10.642;2023-08-12T12:17:51;4.15;;;1.95;;
64063;SDS011;50314;50.618;10.642;2023-08-12T12:20:17;3.15;;;2.08;;
64063;SDS011;50314;50.618;10.642;2023-08-12T12:22:47;3.47;;;2.30;;
64063;SDS011;50314;50.618;10.642;2023-08-12T12:25:13;3.67;;;2.13;;
64063;SDS011;50314;50.618;10.642;2023-08-12T12:27:40;2.63;;;1.98;;
64063;SDS011;50314;50.618;10.642;2023-08-12T12:30:07;2.72;;;1.98;;
64063;SDS011;50314;50.618;10.642;2023-08-12T12:32:33;3.00;;;2.08;;
64063;SDS011;50314;50.618;10.642;2023-08-12T12:34:59;3.45;;;2.15;;
64063;SDS011;50314;50.618;10.642;2023-08-12T12:37:25;3.75;;;2.17;;
64063;SDS011;50314;50.618;10.642;2023-08-12T12:39:50;2.53;;;1.90;;
64063;SDS011;50314;50.618;10.642;2023-08-12T12:42:16;3.17;;;1.90;;
64063;SDS011;50314;50.618;10.642;2023-08-12T12:44:41;2.83;;;2.20;;
64063;SDS011;50314;50.618;10.642;2023-08-12T12:47:07;3.08;;;2.40;;
64063;SDS011;50314;50.618;10.642;2023-08-12T12:49:32;5.57;;;2.30;;
64063;SDS011;50314;50.618;10.642;2023-08-12T12:51:58;3.65;;;2.15;;
64063;SDS011;50314;50.618;10.642;2023-08-12T12:54:23;6.57;;;2.28;;
64063;SDS011;50314;50.618;10.642;2023-08-12T12:56:49;7.88;;;2.45;;
64063;SDS011;50314;50.618;10.642;2023-08-12T12:59:15;4.07;;;2.35;;
64063;SDS011;50314;50.618;10.642;2023-08-12T13:01:41;4.10;;;2.60;;
64063;SDS011;50314;50.618;10.642;2023-08-12T13:04:07;3.70;;;2.25;;
64063;SDS011;50314;50.618;10.642;2023-08-12T13:06:33;5.35;;;2.60;;
64063;SDS011;50314;50.618;10.642;2023-08-12T13:08:59;4.00;;;2.35;;
64063;SDS011;50314;50.618;10.642;2023-08-12T13:11:25;4.40;;;2.60;;
64063;SDS011;50314;50.618;10.642;2023-08-12T13:13:51;3.30;;;2.40;;
64063;SDS011;50314;50.618;10.642;2023-08-12T13:16:17;7.30;;;2.80;;
64063;SDS011;50314;50.618;10.642;2023-08-12T13:18:42;3.35;;;2.42;;
64063;SDS011;50314;50.618;10.642;2023-08-12T13:21:08;2.97;;;2.42;;
64063;SDS011;50314;50.618;10.642;2023-08-12T13:23:33;4.32;;;2.25;;
64063;SDS011;50314;50.618;10.642;2023-08-12T13:25:59;3.40;;;2.67;;
64063;SDS011;50314;50.618;10.642;2023-08-12T13:28:25;3.05;;;2.22;;
64063;SDS011;50314;50.618;10.642;2023-08-12T13:30:50;3.38;;;2.58;;
64063;SDS011;50314;50.618;10.642;2023-08-12T13:33:16;3.92;;;2.53;;
64063;SDS011;50314;50.618;10.642;2023-08-12T13:35:41;4.00;;;2.55;;
64063;SDS011;50314;50.618;10.642;2023-08-12T13:38:07;3.75;;;2.38;;
64063;SDS011;50314;50.618;10.642;2023-08-12T13:40:32;3.95;;;2.10;;
64063;SDS011;50314;50.618;10.642;2023-08-12T13:42:58;4.80;;;2.45;;
64063;SDS011;50314;50.618;10.642;2023-08-12T13:45:23;4.60;;;2.60;;
64063;SDS011;50314;50.618;10.642;2023-08-12T13:47:49;3.88;;;2.65;;
64063;SDS011;50314;50.618;10.642;2023-08-12T13:50:16;4.47;;;2.50;;
64063;SDS011;50314;50.618;10.642;2023-08-12T13:52:42;3.35;;;2.38;;
64063;SDS011;50314;50.618;10.642;2023-08-12T13:55:07;4.20;;;2.50;;
64063;SDS011;50314;50.618;10.642;2023-08-12T13:57:34;3.55;;;2.70;;
64063;SDS011;50314;50.618;10.642;2023-08-12T14:00:00;4.15;;;2.45;;
64063;SDS011;50314;50.618;10.642;2023-08-12T14:02:26;4.95;;;2.40;;
64063;SDS011;50314;50.618;10.642;2023-08-12T14:04:51;6.97;;;2.42;;
64063;SDS011;50314;50.618;10.642;2023-08-12T14:07:17;4.97;;;2.72;;
64063;SDS011;50314;50.618;10.642;2023-08-12T14:09:45;4.72;;;2.53;;
64063;SDS011;50314;50.618;10.642;2023-08-12T14:12:11;5.10;;;2.20;;
64063;SDS011;50314;50.618;10.642;2023-08-12T14:14:36;3.13;;;2.42;;
64063;SDS011;50314;50.618;10.642;2023-08-12T14:17:02;4.30;;;2.40;;
64063;SDS011;50314;50.618;10.642;2023-08-12T14:19:27;3.97;;;2.15;;
64063;SDS011;50314;50.618;10.642;2023-08-12T14:21:53;4.38;;;2.55;;
64063;SDS011;50314;50.618;10.642;2023-08-12T14:24:18;4.75;;;2.72;;
64063;SDS011;50314;50.618;10.642;2023-08-12T14:26:44;4.03;;;2.38;;
64063;SDS011;50314;50.618;10.642;2023-08-12T14:29:09;3.45;;;2.05;;
64063;SDS011;50314;50.618;10.642;2023-08-12T14:31:36;3.38;;;1.95;;
64063;SDS011;50314;50.618;10.642;2023-08-12T14:34:01;3.00;;;2.00;;
64063;SDS011;50314;50.618;10.642;2023-08-12T14:36:28;5.60;;;2.00;;
64063;SDS011;50314;50.618;10.642;2023-08-12T14:38:53;2.90;;;1.77;;
64063;SDS011;50314;50.618;10.642;2023-08-12T14:41:19;2.90;;;1.60;;
64063;SDS011;50314;50.618;10.642;2023-08-12T14:43:44;2.75;;;1.60;;
64063;SDS011;50314;50.618;10.642;2023-08-12T14:46:10;1.77;;;1.55;;
64063;SDS011;50314;50.618;10.642;2023-08-12T14:48:36;3.45;;;1.38;;
64063;SDS011;50314;50.618;10.642;2023-08-12T14:51:01;2.85;;;1.65;;
64063;SDS011;50314;50.618;10.642;2023-08-12T14:53:27;2.45;;;1.60;;
64063;SDS011;50314;50.618;10.642;2023-08-12T14:55:53;1.98;;;1.40;;
64063;SDS011;50314;50.618;10.642;2023-08-12T14:58:18;4.18;;;3.13;;